createdAt,value
2022-10-18T00:01:28.188Z,98768.03
2022-10-18T00:03:55.589Z,98771.78
2022-10-18T00:06:22.973Z,98773.44
2022-10-18T00:08:50.323Z,98774.47
2022-10-18T00:11:18.996Z,98779.19
2022-10-18T00:13:46.324Z,98781.91
2022-10-18T00:16:14.740Z,98780.44
2022-10-18T00:18:42.293Z,98780.66
2022-10-18T00:21:11.238Z,98783.53
2022-10-18T00:23:38.585Z,98782.69
2022-10-18T00:26:07.225Z,98780.78
2022-10-18T00:28:36.369Z,98784.69
2022-10-18T00:31:10.785Z,98779.50
2022-10-18T00:33:38.112Z,98780.53
2022-10-18T00:36:05.728Z,98781.13
2022-10-18T00:38:33.068Z,98777.41
2022-10-18T00:41:00.461Z,98781.56
2022-10-18T00:43:27.789Z,98780.72
2022-10-18T00:45:56.474Z,98785.03
2022-10-18T00:48:24.623Z,98784.56
2022-10-18T00:50:53.052Z,98780.41
2022-10-18T00:53:21.548Z,98773.56
2022-10-18T00:55:49.017Z,98773.56
2022-10-18T00:58:17.639Z,98776.25
2022-10-18T01:00:44.972Z,98777.28
2022-10-18T01:03:13.673Z,98776.63
2022-10-18T01:05:43.413Z,98782.41
2022-10-18T01:08:17.049Z,98774.97
2022-10-18T01:10:50.153Z,98777.00
2022-10-18T01:13:35.942Z,98772.66
2022-10-18T01:16:06.244Z,98768.28
2022-10-18T01:18:38.785Z,98767.84
2022-10-18T01:21:12.031Z,98770.28
2022-10-18T01:24:04.568Z,98766.75
2022-10-18T01:26:40.682Z,98760.88
2022-10-18T01:29:20.545Z,98759.59
2022-10-18T01:31:53.457Z,98756.50
2022-10-18T01:34:25.722Z,98756.13
2022-10-18T01:36:54.920Z,98759.47
2022-10-18T01:39:24.672Z,98748.50
2022-10-18T01:41:53.556Z,98750.72
2022-10-18T01:44:22.558Z,98751.75
2022-10-18T01:46:52.240Z,98744.03
2022-10-18T01:49:19.590Z,98752.72
2022-10-18T01:51:46.976Z,98747.94
2022-10-18T01:54:16.992Z,98742.38
2022-10-18T01:56:48.614Z,98745.84
2022-10-18T01:59:23.841Z,98744.81
2022-10-18T02:01:56.546Z,98742.06
2022-10-18T02:04:29.972Z,98744.94
2022-10-18T02:07:02.872Z,98735.00
2022-10-18T02:09:32.853Z,98745.59
2022-10-18T02:12:00.985Z,98737.69
2022-10-18T02:14:28.829Z,98741.97
2022-10-18T02:16:59.365Z,98751.56
2022-10-18T02:19:29.191Z,98758.16
2022-10-18T02:21:58.408Z,98747.56
2022-10-18T02:24:28.226Z,98746.06
2022-10-18T02:26:55.716Z,98746.88
2022-10-18T02:29:23.417Z,98743.78
2022-10-18T02:31:54.920Z,98741.66
2022-10-18T02:34:24.751Z,98753.28
2022-10-18T02:36:53.508Z,98757.44
2022-10-18T02:39:23.493Z,98757.63
2022-10-18T02:41:50.840Z,98754.50
2022-10-18T02:44:18.224Z,98756.53
2022-10-18T02:46:46.228Z,98757.19
2022-10-18T02:49:13.616Z,98751.97
2022-10-18T02:51:42.321Z,98752.38
2022-10-18T02:54:09.796Z,98749.66
2022-10-18T02:56:37.212Z,98747.72
2022-10-18T02:59:07.224Z,98752.28
2022-10-18T03:01:34.746Z,98753.56
2022-10-18T03:04:02.148Z,98743.16
2022-10-18T03:06:29.495Z,98745.03
2022-10-18T03:08:58.183Z,98749.13
2022-10-18T03:11:25.547Z,98743.75
2022-10-18T03:13:52.868Z,98747.28
2022-10-18T03:16:20.420Z,98739.56
2022-10-18T03:18:47.816Z,98741.25
2022-10-18T03:21:15.165Z,98741.03
2022-10-18T03:23:42.663Z,98737.91
2022-10-18T03:26:11.404Z,98738.34
2022-10-18T03:28:38.778Z,98730.03
2022-10-18T03:31:06.329Z,98733.72
2022-10-18T03:33:34.040Z,98738.66
2022-10-18T03:36:01.368Z,98734.38
2022-10-18T03:38:28.720Z,98737.06
2022-10-18T03:40:56.128Z,98726.09
2022-10-18T03:43:24.899Z,98732.72
2022-10-18T03:45:52.255Z,98726.50
2022-10-18T03:48:19.606Z,98721.28
2022-10-18T03:50:46.932Z,98727.06
2022-10-18T03:53:14.417Z,98724.19
2022-10-18T03:55:41.788Z,98727.06
2022-10-18T03:58:09.184Z,98724.81
2022-10-18T04:00:37.895Z,98726.75
2022-10-18T04:03:05.208Z,98727.41
2022-10-18T04:05:32.595Z,98725.53
2022-10-18T04:07:59.934Z,98721.38
2022-10-18T04:10:27.299Z,98731.31
2022-10-18T04:12:54.688Z,98722.56
2022-10-18T04:15:22.025Z,98727.13
2022-10-18T04:17:50.734Z,98724.53
2022-10-18T04:20:18.365Z,98728.63
2022-10-18T04:22:45.764Z,98724.88
2022-10-18T04:25:13.105Z,98719.94
2022-10-18T04:27:40.480Z,98715.78
2022-10-18T04:30:08.284Z,98721.09
2022-10-18T04:32:35.965Z,98725.94
2022-10-18T04:35:05.126Z,98719.13
2022-10-18T04:37:33.094Z,98720.59
2022-10-18T04:40:00.644Z,98716.44
2022-10-18T04:42:27.997Z,98721.16
2022-10-18T04:44:55.339Z,98719.50
2022-10-18T04:47:22.695Z,98718.69
2022-10-18T04:49:50.040Z,98718.47
2022-10-18T04:52:18.751Z,98716.88
2022-10-18T04:54:46.078Z,98716.44
2022-10-18T04:57:13.435Z,98708.34
2022-10-18T04:59:40.784Z,98712.06
2022-10-18T05:02:08.089Z,98709.75
2022-10-18T05:04:35.447Z,98706.00
2022-10-18T05:07:03.137Z,98701.28
2022-10-18T05:09:31.800Z,98694.03
2022-10-18T05:11:59.148Z,98695.06
2022-10-18T05:14:26.572Z,98688.66
2022-10-18T05:16:53.922Z,98696.06
2022-10-18T05:19:21.331Z,98683.44
2022-10-18T05:21:48.716Z,98692.19
2022-10-18T05:24:16.031Z,98696.53
2022-10-18T05:26:44.703Z,98695.91
2022-10-18T05:29:12.138Z,98697.31
2022-10-18T05:31:39.583Z,98698.31
2022-10-18T05:34:06.972Z,98705.41
2022-10-18T05:36:34.315Z,98696.19
2022-10-18T05:39:05.039Z,98693.44
2022-10-18T05:41:32.608Z,98698.59
2022-10-18T05:44:03.600Z,98698.13
2022-10-18T05:46:31.025Z,98692.75
2022-10-18T05:48:58.372Z,98692.31
2022-10-18T05:51:25.788Z,98692.47
2022-10-18T05:53:54.698Z,98699.16
2022-10-18T05:56:22.074Z,98697.38
2022-10-18T05:58:50.988Z,98706.00
2022-10-18T06:01:20.048Z,98698.88
2022-10-18T06:03:47.501Z,98701.69
2022-10-18T06:06:15.971Z,98701.47
2022-10-18T06:08:43.907Z,98699.03
2022-10-18T06:11:12.498Z,98702.63
2022-10-18T06:13:43.249Z,98710.66
2022-10-18T06:16:11.157Z,98709.44
2022-10-18T06:18:40.171Z,98717.50
2022-10-18T06:21:08.302Z,98715.59
2022-10-18T06:23:36.144Z,98713.81
2022-10-18T06:26:04.870Z,98719.13
2022-10-18T06:28:32.390Z,98710.22
2022-10-18T06:30:59.897Z,98710.25
2022-10-18T06:33:27.650Z,98713.97
2022-10-18T06:35:57.005Z,98714.97
2022-10-18T06:38:24.714Z,98711.22
2022-10-18T06:40:52.099Z,98717.00
2022-10-18T06:43:21.528Z,98718.28
2022-10-18T06:45:49.076Z,98721.63
2022-10-18T06:48:16.494Z,98724.91
2022-10-18T06:50:43.882Z,98727.22
2022-10-18T06:53:12.574Z,98721.28
2022-10-18T06:55:39.934Z,98714.59
2022-10-18T06:58:17.510Z,98715.34
2022-10-18T07:00:45.275Z,98712.63
2022-10-18T07:03:12.898Z,98719.13
2022-10-18T07:05:40.236Z,98710.50
2022-10-18T07:08:07.597Z,98711.41
2022-10-18T07:10:36.373Z,98707.44
2022-10-18T07:13:30.419Z,98703.59
2022-10-18T07:16:00.635Z,98708.03
2022-10-18T07:18:27.984Z,98707.59
2022-10-18T07:20:55.365Z,98721.78
2022-10-18T07:23:23.830Z,98718.75
2022-10-18T07:25:52.549Z,98721.94
2022-10-18T07:28:19.945Z,98723.03
2022-10-18T07:30:47.309Z,98724.06
2022-10-18T07:33:15.435Z,98734.94
2022-10-18T07:35:45.809Z,98747.84
2022-10-18T07:38:13.197Z,98752.00
2022-10-18T07:40:40.554Z,98743.59
2022-10-18T07:43:12.056Z,98735.88
2022-10-18T07:45:39.669Z,98728.28
2022-10-18T07:48:07.271Z,98736.16
2022-10-18T07:50:34.636Z,98739.81
2022-10-18T07:53:01.960Z,98732.91
2022-10-18T07:55:29.289Z,98734.59
2022-10-18T07:57:56.621Z,98730.19
2022-10-18T08:00:25.336Z,98733.63
2022-10-18T08:02:56.441Z,98739.69
2022-10-18T08:05:23.843Z,98735.25
2022-10-18T08:07:51.379Z,98747.19
2022-10-18T08:10:18.710Z,98741.28
2022-10-18T08:12:46.099Z,98750.38
2022-10-18T08:15:13.496Z,98749.09
2022-10-18T08:17:43.485Z,98750.56
2022-10-18T08:20:19.302Z,98751.13
2022-10-18T08:23:00.160Z,98754.09
2022-10-18T08:25:28.470Z,98750.44
2022-10-18T08:27:55.886Z,98757.78
2022-10-18T08:30:23.592Z,98758.94
2022-10-18T08:32:52.280Z,98756.09
2022-10-18T08:35:19.742Z,98758.00
2022-10-18T08:37:48.355Z,98758.28
2022-10-18T08:40:15.762Z,98752.72
2022-10-18T08:42:52.642Z,98754.84
2022-10-18T08:45:37.562Z,98752.41
2022-10-18T08:48:09.110Z,98757.31
2022-10-18T08:50:38.654Z,98740.34
2022-10-18T08:53:15.248Z,98746.34
2022-10-18T08:55:45.650Z,98737.84
2022-10-18T08:58:16.513Z,98728.38
2022-10-18T09:00:47.534Z,98736.47
2022-10-18T09:03:23.423Z,98730.25
2022-10-18T09:05:53.100Z,98737.16
2022-10-18T09:08:35.313Z,98728.59
2022-10-18T09:11:09.334Z,98734.63
2022-10-18T09:13:54.196Z,98732.34
2022-10-18T09:16:22.725Z,98723.19
2022-10-18T09:18:57.651Z,98722.41
2022-10-18T09:21:30.270Z,98731.78
2022-10-18T09:23:59.809Z,98742.88
2022-10-18T09:29:25.331Z,98736.34
2022-10-18T09:32:01.081Z,98738.22
2022-10-18T09:34:32.491Z,98749.03
2022-10-18T09:37:00.148Z,98748.63
2022-10-18T09:39:31.109Z,98745.53
2022-10-18T09:42:00.896Z,98745.78
2022-10-18T09:44:31.138Z,98755.25
2022-10-18T09:47:00.711Z,98754.06
2022-10-18T09:49:30.249Z,98752.19
2022-10-18T09:52:00.888Z,98753.84
2022-10-18T09:54:31.742Z,98766.84
2022-10-18T09:57:03.487Z,98759.56
2022-10-18T09:59:36.175Z,98765.47
2022-10-18T10:02:03.651Z,98763.66
2022-10-18T10:04:31.055Z,98756.88
2022-10-18T10:07:01.157Z,98759.09
2022-10-18T10:09:29.472Z,98755.91
2022-10-18T10:11:57.382Z,98762.84
2022-10-18T10:14:26.377Z,98766.81
2022-10-18T10:16:54.887Z,98768.72
2022-10-18T10:19:25.352Z,98771.50
2022-10-18T10:21:54.136Z,98760.25
2022-10-18T10:24:28.824Z,98764.53
2022-10-18T10:27:02.494Z,98760.91
2022-10-18T10:29:49.105Z,98766.00
2022-10-18T10:32:18.200Z,98768.59
2022-10-18T10:34:45.838Z,98767.63
2022-10-18T10:37:24.306Z,98772.31
2022-10-18T10:40:17.860Z,98768.63
2022-10-18T10:43:18.360Z,98769.69
2022-10-18T10:45:58.024Z,98768.22
2022-10-18T10:48:31.047Z,98772.16
2022-10-18T10:51:02.407Z,98780.13
2022-10-18T10:53:31.863Z,98775.22
2022-10-18T10:56:01.068Z,98770.28
2022-10-18T10:58:31.049Z,98772.41
2022-10-18T11:00:58.549Z,98764.97
2022-10-18T11:03:29.959Z,98762.03
2022-10-18T11:06:00.636Z,98757.25
2022-10-18T11:08:30.403Z,98764.09
2022-10-18T11:11:03.786Z,98764.16
2022-10-18T11:13:41.656Z,98767.94
2022-10-18T11:16:14.261Z,98774.00
2022-10-18T11:18:44.477Z,98775.91
2022-10-18T11:21:13.401Z,98771.09
2022-10-18T11:23:42.145Z,98764.88
2022-10-18T11:26:20.640Z,98759.84
2022-10-18T11:28:58.421Z,98757.97
2022-10-18T11:31:28.399Z,98762.97
2022-10-18T11:34:10.331Z,98761.31
2022-10-18T11:36:49.455Z,98754.03
2022-10-18T11:39:37.863Z,98745.22
2022-10-18T11:42:14.808Z,98749.41
2022-10-18T11:44:47.159Z,98751.06
2022-10-18T11:47:18.469Z,98753.16
2022-10-18T11:50:02.257Z,98747.91
2022-10-18T11:52:34.564Z,98739.59
2022-10-18T11:55:07.387Z,98740.63
2022-10-18T11:57:41.506Z,98746.06
2022-10-18T12:00:15.360Z,98742.94
2022-10-18T12:02:52.077Z,98743.97
2022-10-18T12:05:23.476Z,98738.34
2022-10-18T12:07:54.761Z,98741.03
2022-10-18T12:10:31.737Z,98734.16
2022-10-18T12:13:15.530Z,98741.44
2022-10-18T12:15:43.285Z,98738.75
2022-10-18T12:18:13.752Z,98740.97
2022-10-18T12:20:42.645Z,98740.59
2022-10-18T12:23:11.901Z,98737.88
2022-10-18T12:25:40.779Z,98727.00
2022-10-18T12:28:14.721Z,98740.53
2022-10-18T12:30:49.001Z,98731.50
2022-10-18T12:33:29.295Z,98730.69
2022-10-18T12:36:05.585Z,98734.69
2022-10-18T12:38:34.344Z,98733.84
2022-10-18T12:41:01.894Z,98736.38
2022-10-18T12:43:32.516Z,98730.59
2022-10-18T12:46:02.213Z,98729.94
2022-10-18T12:48:31.231Z,98726.63
2022-10-18T12:50:59.848Z,98735.63
2022-10-18T12:53:27.885Z,98726.44
2022-10-18T12:55:55.759Z,98727.84
2022-10-18T12:58:25.294Z,98725.34
2022-10-18T13:00:53.876Z,98723.03
2022-10-18T13:03:40.851Z,98723.69
2022-10-18T13:06:08.435Z,98725.31
2022-10-18T13:08:42.764Z,98724.03
2022-10-18T13:11:28.476Z,98729.50
2022-10-18T13:14:06.374Z,98723.84
2022-10-18T13:16:38.000Z,98722.16
2022-10-18T13:19:23.427Z,98723.25
2022-10-18T13:21:56.050Z,98723.16
2022-10-18T13:24:26.910Z,98730.31
2022-10-18T13:27:24.011Z,98740.56
2022-10-18T13:29:56.280Z,98737.84
2022-10-18T13:32:27.975Z,98731.38
2022-10-18T13:34:56.838Z,98732.63
2022-10-18T13:37:25.814Z,98744.94
2022-10-18T13:40:13.254Z,98742.63
2022-10-18T13:42:40.618Z,98750.38
2022-10-18T13:45:26.544Z,98756.38
2022-10-18T13:47:53.892Z,98755.13
2022-10-18T13:50:36.279Z,98763.28
2022-10-18T13:53:24.490Z,98758.66
2022-10-18T13:56:03.477Z,98755.56
2022-10-18T13:58:33.955Z,98755.13
2022-10-18T14:01:06.706Z,98762.03
2022-10-18T14:03:57.495Z,98762.03
2022-10-18T14:06:28.304Z,98774.78
2022-10-18T14:09:03.365Z,98763.72
2022-10-18T14:11:44.128Z,98768.50
2022-10-18T14:14:16.180Z,98767.66
2022-10-18T14:16:47.493Z,98767.66
2022-10-18T14:19:17.392Z,98763.06
2022-10-18T14:21:50.024Z,98768.88
2022-10-18T14:24:21.041Z,98763.03
2022-10-18T14:26:48.435Z,98764.72
2022-10-18T14:29:20.535Z,98760.94
2022-10-18T14:31:53.134Z,98762.66
2022-10-18T14:34:21.613Z,98760.28
2022-10-18T14:36:50.901Z,98769.50
2022-10-18T14:39:20.957Z,98764.94
2022-10-18T14:41:52.335Z,98758.84
2022-10-18T14:44:21.281Z,98768.88
2022-10-18T14:46:49.361Z,98761.41
2022-10-18T14:49:17.119Z,98752.47
2022-10-18T14:51:45.651Z,98746.56
2022-10-18T14:54:16.211Z,98751.19
2022-10-18T14:56:44.535Z,98755.13
2022-10-18T14:59:13.931Z,98744.50
2022-10-18T15:01:43.671Z,98748.91
2022-10-18T15:04:12.416Z,98748.69
2022-10-18T15:06:43.695Z,98753.50
2022-10-18T15:09:12.187Z,98751.22
2022-10-18T15:11:42.181Z,98758.28
2022-10-18T15:14:14.183Z,98756.41
2022-10-18T15:16:41.754Z,98755.16
2022-10-18T15:19:26.544Z,98751.22
2022-10-18T15:22:08.056Z,98748.13
2022-10-18T15:24:41.558Z,98745.00
2022-10-18T15:27:14.421Z,98751.25
2022-10-18T15:29:43.590Z,98755.41
2022-10-18T15:32:16.797Z,98761.06
2022-10-18T15:34:44.290Z,98754.41
2022-10-18T15:37:31.271Z,98755.84
2022-10-18T15:40:17.231Z,98751.44
2022-10-18T15:42:45.967Z,98765.22
2022-10-18T15:45:30.670Z,98764.81
2022-10-18T15:47:59.479Z,98757.97
2022-10-18T15:50:37.229Z,98758.56
2022-10-18T15:53:23.822Z,98762.09
2022-10-18T15:55:52.763Z,98756.69
2022-10-18T15:58:22.839Z,98752.53
2022-10-18T16:00:50.928Z,98766.09
2022-10-18T16:03:19.317Z,98757.34
2022-10-18T16:05:46.703Z,98761.94
2022-10-18T16:08:23.765Z,98754.84
2022-10-18T16:10:51.293Z,98764.63
2022-10-18T16:13:18.704Z,98774.66
2022-10-18T16:15:47.454Z,98779.44
2022-10-18T16:18:16.167Z,98782.16
2022-10-18T16:20:43.598Z,98783.81
2022-10-18T16:23:16.975Z,98779.66
2022-10-18T16:25:44.448Z,98781.31
2022-10-18T16:28:13.685Z,98782.78
2022-10-18T16:30:43.222Z,98786.75
2022-10-18T16:33:12.109Z,98780.69
2022-10-18T16:35:39.469Z,98786.09
2022-10-18T16:38:06.813Z,98785.50
2022-10-18T16:40:36.476Z,98791.31
2022-10-18T16:43:06.267Z,98795.91
2022-10-18T16:45:33.601Z,98795.66
2022-10-18T16:48:00.943Z,98804.19
2022-10-18T16:50:33.110Z,98809.84
2022-10-18T16:53:01.927Z,98811.66
2022-10-18T16:55:29.240Z,98812.56
2022-10-18T16:57:57.151Z,98811.06
2022-10-18T17:00:24.589Z,98810.19
2022-10-18T17:02:51.920Z,98820.63
2022-10-18T17:05:20.058Z,98831.28
2022-10-18T17:07:48.740Z,98823.41
2022-10-18T17:10:16.961Z,98827.97
2022-10-18T17:12:45.314Z,98830.22
2022-10-18T17:15:12.914Z,98830.03
2022-10-18T17:17:40.413Z,98834.34
2022-10-18T17:20:09.140Z,98835.56
2022-10-18T17:22:36.495Z,98836.88
2022-10-18T17:25:05.383Z,98837.50
2022-10-18T17:27:34.752Z,98841.91
2022-10-18T17:30:02.328Z,98843.56
2022-10-18T17:32:30.180Z,98844.59
2022-10-18T17:34:57.503Z,98843.34
2022-10-18T17:37:24.857Z,98845.06
2022-10-18T17:39:52.240Z,98848.69
2022-10-18T17:42:21.582Z,98858.47
2022-10-18T17:44:51.084Z,98858.66
2022-10-18T17:47:19.384Z,98866.19
2022-10-18T17:49:46.796Z,98866.78
2022-10-18T17:52:14.152Z,98870.97
2022-10-18T17:54:41.520Z,98869.53
2022-10-18T17:57:08.916Z,98874.91
2022-10-18T17:59:37.608Z,98871.13
2022-10-18T18:02:04.982Z,98872.19
2022-10-18T18:04:32.449Z,98868.22
2022-10-18T18:06:59.779Z,98865.16
2022-10-18T18:09:27.424Z,98857.25
2022-10-18T18:11:55.446Z,98852.28
2022-10-18T18:14:22.897Z,98850.81
2022-10-18T18:16:51.581Z,98859.19
2022-10-18T18:19:19.811Z,98868.09
2022-10-18T18:21:47.193Z,98867.63
2022-10-18T18:24:15.565Z,98869.53
2022-10-18T18:26:43.315Z,98857.91
2022-10-18T18:29:12.438Z,98872.06
2022-10-18T18:31:43.487Z,98875.16
2022-10-18T18:34:12.590Z,98868.03
2022-10-18T18:36:39.968Z,98866.41
2022-10-18T18:39:08.816Z,98867.03
2022-10-18T18:41:37.284Z,98861.25
2022-10-18T18:44:05.659Z,98861.66
2022-10-18T18:46:36.664Z,98863.72
2022-10-18T18:49:04.129Z,98864.75
2022-10-18T18:51:33.131Z,98863.66
2022-10-18T18:54:00.513Z,98860.13
2022-10-18T18:56:28.760Z,98862.88
2022-10-18T18:58:56.736Z,98866.41
2022-10-18T19:01:25.224Z,98862.47
2022-10-18T19:03:53.325Z,98865.34
2022-10-18T19:06:22.083Z,98865.75
2022-10-18T19:08:52.586Z,98866.78
2022-10-18T19:11:21.126Z,98866.38
2022-10-18T19:13:48.759Z,98863.44
2022-10-18T19:16:18.839Z,98864.69
2022-10-18T19:18:50.820Z,98864.25
2022-10-18T19:21:18.159Z,98864.44
2022-10-18T19:23:45.490Z,98856.75
2022-10-18T19:26:14.651Z,98852.09
2022-10-18T19:28:42.825Z,98848.38
2022-10-18T19:31:10.262Z,98854.84
2022-10-18T19:33:48.105Z,98852.53
2022-10-18T19:36:23.364Z,98854.81
2022-10-18T19:38:50.703Z,98853.38
2022-10-18T19:41:19.480Z,98859.00
2022-10-18T19:43:46.843Z,98860.63
2022-10-18T19:46:14.210Z,98869.34
2022-10-18T19:48:41.535Z,98862.91
2022-10-18T19:51:09.750Z,98873.47
2022-10-18T19:53:38.314Z,98864.53
2022-10-18T19:56:06.553Z,98870.50
2022-10-18T19:58:35.230Z,98869.31
2022-10-18T20:01:02.644Z,98873.69
2022-10-18T20:03:31.050Z,98869.84
2022-10-18T20:05:58.839Z,98878.38
2022-10-18T20:08:26.650Z,98875.97
2022-10-18T20:10:54.362Z,98874.22
2022-10-18T20:13:22.227Z,98864.97
2022-10-18T20:15:51.378Z,98871.97
2022-10-18T20:18:19.235Z,98871.13
2022-10-18T20:20:48.281Z,98871.09
2022-10-18T20:23:16.385Z,98864.81
2022-10-18T20:25:43.770Z,98869.38
2022-10-18T20:28:11.113Z,98869.00
2022-10-18T20:30:38.608Z,98868.03
2022-10-18T20:33:07.302Z,98871.97
2022-10-18T20:35:34.634Z,98870.56
2022-10-18T20:38:02.038Z,98872.38
2022-10-18T20:40:29.481Z,98871.84
2022-10-18T20:43:00.159Z,98879.53
2022-10-18T20:45:28.809Z,98880.88
2022-10-18T20:47:56.122Z,98877.91
2022-10-18T20:50:27.749Z,98883.88
2022-10-18T20:52:55.082Z,98880.47
2022-10-18T20:55:22.413Z,98880.44
2022-10-18T20:57:49.752Z,98884.50
2022-10-18T21:00:17.158Z,98886.19
2022-10-18T21:02:44.482Z,98880.44
2022-10-18T21:05:11.913Z,98888.06
2022-10-18T21:07:40.593Z,98882.91
2022-10-18T21:10:08.307Z,98876.41
2022-10-18T21:12:36.055Z,98873.41
2022-10-18T21:15:03.645Z,98876.81
2022-10-18T21:17:30.990Z,98876.34
2022-10-18T21:19:58.388Z,98876.09
2022-10-18T21:22:25.732Z,98869.84
2022-10-18T21:24:54.398Z,98874.84
2022-10-18T21:27:21.784Z,98883.34
2022-10-18T21:29:49.254Z,98881.84
2022-10-18T21:32:16.932Z,98886.59
2022-10-18T21:34:44.269Z,98882.19
2022-10-18T21:37:11.605Z,98872.63
2022-10-18T21:39:38.980Z,98869.00
2022-10-18T21:42:08.564Z,98871.72
2022-10-18T21:44:36.780Z,98874.41
2022-10-18T21:47:04.164Z,98876.28
2022-10-18T21:49:34.990Z,98878.34
2022-10-18T21:52:03.538Z,98867.50
2022-10-18T21:54:31.065Z,98868.53
2022-10-18T21:56:58.400Z,98861.66
2022-10-18T21:59:27.064Z,98859.97
2022-10-18T22:01:54.397Z,98852.66
2022-10-18T22:04:23.198Z,98854.50
2022-10-18T22:06:50.760Z,98854.31
2022-10-18T22:09:18.107Z,98855.59
2022-10-18T22:11:46.537Z,98862.81
2022-10-18T22:14:14.040Z,98848.22
2022-10-18T22:16:42.721Z,98847.97
2022-10-18T22:19:10.104Z,98844.63
2022-10-18T22:21:37.447Z,98840.66
2022-10-18T22:24:05.698Z,98846.69
2022-10-18T22:26:34.048Z,98838.84
2022-10-18T22:29:02.607Z,98836.53
2022-10-18T22:31:30.884Z,98835.44
2022-10-18T22:34:00.508Z,98836.81
2022-10-18T22:36:28.313Z,98831.00
2022-10-18T22:38:55.836Z,98829.16
2022-10-18T22:41:23.199Z,98831.00
2022-10-18T22:43:50.824Z,98832.06
2022-10-18T22:46:18.572Z,98833.09
2022-10-18T22:48:46.099Z,98834.28
2022-10-18T22:51:14.800Z,98834.91
2022-10-18T22:53:42.152Z,98827.81
2022-10-18T22:56:10.812Z,98829.03
2022-10-18T22:58:38.174Z,98826.94
2022-10-18T23:01:06.371Z,98822.56
2022-10-18T23:03:33.718Z,98826.66
2022-10-18T23:06:01.324Z,98823.97
2022-10-18T23:08:30.100Z,98828.13
2022-10-18T23:10:58.629Z,98831.47
2022-10-18T23:13:26.548Z,98833.34
2022-10-18T23:15:54.424Z,98837.97
2022-10-18T23:18:21.740Z,98840.03
2022-10-18T23:20:49.084Z,98846.34
2022-10-18T23:23:16.412Z,98837.13
2022-10-18T23:25:46.067Z,98838.09
2022-10-18T23:28:14.144Z,98834.75
2022-10-18T23:30:41.525Z,98833.34
2022-10-18T23:33:08.853Z,98828.66
2022-10-18T23:35:37.440Z,98839.81
2022-10-18T23:38:04.776Z,98837.19
2022-10-18T23:40:32.148Z,98838.41
2022-10-18T23:43:00.947Z,98840.91
2022-10-18T23:45:28.300Z,98842.00
2022-10-18T23:47:55.737Z,98837.78
2022-10-18T23:50:23.072Z,98845.81
2022-10-18T23:52:50.405Z,98851.34
2022-10-18T23:55:17.876Z,98859.81
2022-10-18T23:57:45.277Z,98855.34
